Астрахань

Карта отелей и гостиниц, располагающихся рядом с аэропортом Астрахань :

Астрахань Астраханская область 46° 16' 59.6388" N, 48° 0' 22.3812" E
Код аэродрома ИКАО
URWA
Код аэродрома RU
УРВА
Координаты
N46.28323° E048.00622°
Превышение над уровнем моря
-20
Основная полоса
09/27
Курс магнитный
088,5/268,5
Длина основной ВПП
3200
Ширина основной ВПП
45
Покрытие основной ВПП
Твёрдое (железобетон)
Освещение ВПП
Постоянное
Тип: 
Аэродром
Класс аэродрома: 
Международный
Принадлежность: 
ГА
Статус: 
Действующий
Сайт: 
аэропортастрахань.рф
E-mail аэродрома: 
mail@airport.astrakhan.ru
Страна: 
Россия
Регион: 
Астраханская область
Дополнительная информация: 
Оператор: ОАО «Аэропорт Астрахань». Аэропорт федерального значения, расположенный на южной окраине г. Астрахани в 8 км южнее центра города. До начала 2000-х годов носил наименование «Нариманово». Максимальный взлётный вес воздушного судна: 191 тонна. Классификационное число ВПП (PCN) 63/F/C/Х/T. Оборудование аэродрома позволяет выполнять посадку ВС по метеоминимуму I-й категории ИКАО (800х60м). ДПРМ: 650-GV, БПРМ: 315-G с МК=089°.
Погода: 

Авиационная погода в Астрахани

Регион: 
Погода METAR: 
URWA 221800Z 07005MPS 9999 BKN009 M02/M03 Q1019 R09/810260 NOSIG RMK QFE766/1022
Время наблюдения
2022-01-22T18:00:00Z
Температура C
-2.0
Точка росы
-3.0
Направление ветра
70
Скорость ветра (узлы)
10
Метео видимость
6.21
Облачность
BKN
Нижняя граница облачности (футы)
900
Явления погоды
Условия полета
IFR
Аэропорт подробнее: 
BKN – значительная (рассеянная, разорванная) облачность;

Найти трансфер

С помощью этой формы Вы можете найти трансфер из аэропорта Астрахань в город, аэропорт или вокзал:

Погода в аэропортах:

Авиационная погода в Минске

Регион: 
Погода METAR: 
UMMS 221743Z 35008G12MPS 2800 -SHSN BLSN BKN015CB BKN041 M04/M05 Q1012 NOSIG
Время наблюдения
2022-01-22T17:43:00Z
Температура C
-4.0
Точка росы
-5.0
Направление ветра
350
Скорость ветра (узлы)
16
Метео видимость
1.74
Облачность
BKN
BKN
Нижняя граница облачности (футы)
1500
4100
Явления погоды
-SHSN BLSN
Условия полета
IFR
Аэропорт подробнее: 
BKN – значительная (рассеянная, разорванная) облачность;
-SHSN - слабый ливневой снег, BLSN – метель низовая или общая;

Авиационная погода в Пскове

Регион: 
Погода METAR: 
ULOO 221800Z 07003MPS 010V110 9000 -SN OVC014 M04/M06 Q1018 R01/490333 NOSIG RMK QFE759
Время наблюдения
2022-01-22T18:00:00Z
Температура C
-4.0
Точка росы
-6.0
Направление ветра
70
Скорость ветра (узлы)
6
Метео видимость
5.59
Облачность
OVC
Нижняя граница облачности (футы)
1400
Явления погоды
-SN
Условия полета
MVFR
OVC – сплошная облачность;
-SN – слабый снег;

Авиационная погода в Москва - Шереметьево

Погода METAR: 
UUEE 221800Z 07004MPS 9000 4000NE -SN OVC008 M04/M06 Q1011 R06R/590530 R06C/590526 R06L/590530 NOSIG
Время наблюдения
2022-01-22T18:00:00Z
Температура C
-4.0
Точка росы
-6.0
Направление ветра
70
Скорость ветра (узлы)
8
Метео видимость
5.59
Облачность
OVC
Нижняя граница облачности (футы)
800
Явления погоды
-SN
Условия полета
IFR
Аэропорт подробнее: 
OVC – сплошная облачность;
-SN – слабый снег;

Авиационная погода в Перми

Регион: 
Погода METAR: 
USPP 221800Z 11003MPS 5000 -SN BR OVC015 M15/M17 Q1029 R21/090060 NOSIG RMK QFE760
Время наблюдения
2022-01-22T18:00:00Z
Температура C
-15.0
Точка росы
-17.0
Направление ветра
110
Скорость ветра (узлы)
6
Метео видимость
3.11
Облачность
OVC
Нижняя граница облачности (футы)
1500
Явления погоды
-SN BR
Условия полета
MVFR
Аэропорт подробнее: 
OVC – сплошная облачность;
-SN – слабый снег; BR – дымка (видимость от 1 до 9 км);